sensor_id;sensor_type;location;lat;lon;timestamp;P1;durP1;ratioP1;P2;durP2;ratioP2
64923;SDS011;51436;44.692;39.214;2022-11-04T00:00:09;22.02;;;9.02;;
64923;SDS011;51436;44.692;39.214;2022-11-04T00:02:36;19.20;;;8.57;;
64923;SDS011;51436;44.692;39.214;2022-11-04T00:05:03;17.67;;;8.73;;
64923;SDS011;51436;44.692;39.214;2022-11-04T00:07:29;20.08;;;7.78;;
64923;SDS011;51436;44.692;39.214;2022-11-04T00:10:14;21.27;;;9.32;;
64923;SDS011;51436;44.692;39.214;2022-11-04T00:12:41;17.55;;;7.93;;
64923;SDS011;51436;44.692;39.214;2022-11-04T00:15:07;21.48;;;9.95;;
64923;SDS011;51436;44.692;39.214;2022-11-04T00:17:52;19.20;;;8.55;;
64923;SDS011;51436;44.692;39.214;2022-11-04T00:20:18;21.02;;;8.35;;
64923;SDS011;51436;44.692;39.214;2022-11-04T00:23:03;17.23;;;8.25;;
64923;SDS011;51436;44.692;39.214;2022-11-04T00:25:48;18.15;;;7.68;;
64923;SDS011;51436;44.692;39.214;2022-11-04T00:28:51;20.10;;;8.75;;
64923;SDS011;51436;44.692;39.214;2022-11-04T00:31:28;15.00;;;7.88;;
64923;SDS011;51436;44.692;39.214;2022-11-04T00:34:13;16.30;;;7.60;;
64923;SDS011;51436;44.692;39.214;2022-11-04T00:36:39;17.48;;;7.75;;
64923;SDS011;51436;44.692;39.214;2022-11-04T00:39:19;17.63;;;7.72;;
64923;SDS011;51436;44.692;39.214;2022-11-04T00:41:46;21.30;;;8.65;;
64923;SDS011;51436;44.692;39.214;2022-11-04T00:44:12;20.77;;;9.18;;
64923;SDS011;51436;44.692;39.214;2022-11-04T00:46:38;17.13;;;7.72;;
64923;SDS011;51436;44.692;39.214;2022-11-04T00:49:05;13.80;;;7.43;;
64923;SDS011;51436;44.692;39.214;2022-11-04T00:51:31;20.50;;;7.88;;
64923;SDS011;51436;44.692;39.214;2022-11-04T00:53:58;17.35;;;7.25;;
64923;SDS011;51436;44.692;39.214;2022-11-04T00:56:24;23.67;;;8.55;;
64923;SDS011;51436;44.692;39.214;2022-11-04T00:58:51;19.08;;;8.30;;
64923;SDS011;51436;44.692;39.214;2022-11-04T01:01:17;11.80;;;7.03;;
64923;SDS011;51436;44.692;39.214;2022-11-04T01:03:45;19.55;;;8.65;;
64923;SDS011;51436;44.692;39.214;2022-11-04T01:06:13;15.43;;;7.35;;
64923;SDS011;51436;44.692;39.214;2022-11-04T01:08:40;18.85;;;7.90;;
64923;SDS011;51436;44.692;39.214;2022-11-04T01:11:07;16.05;;;8.00;;
64923;SDS011;51436;44.692;39.214;2022-11-04T01:13:34;16.67;;;7.63;;
64923;SDS011;51436;44.692;39.214;2022-11-04T01:16:02;20.38;;;7.55;;
64923;SDS011;51436;44.692;39.214;2022-11-04T01:18:38;14.52;;;7.75;;
64923;SDS011;51436;44.692;39.214;2022-11-04T01:21:06;17.98;;;7.88;;
64923;SDS011;51436;44.692;39.214;2022-11-04T01:23:34;15.00;;;7.30;;
64923;SDS011;51436;44.692;39.214;2022-11-04T01:26:03;21.20;;;9.13;;
64923;SDS011;51436;44.692;39.214;2022-11-04T01:28:33;13.55;;;7.53;;
64923;SDS011;51436;44.692;39.214;2022-11-04T01:31:10;20.25;;;7.80;;
64923;SDS011;51436;44.692;39.214;2022-11-04T01:33:38;13.65;;;7.78;;
64923;SDS011;51436;44.692;39.214;2022-11-04T01:36:06;12.00;;;7.10;;
64923;SDS011;51436;44.692;39.214;2022-11-04T01:38:59;15.63;;;7.38;;
64923;SDS011;51436;44.692;39.214;2022-11-04T01:41:27;12.90;;;7.43;;
64923;SDS011;51436;44.692;39.214;2022-11-04T01:43:59;12.57;;;7.32;;
64923;SDS011;51436;44.692;39.214;2022-11-04T01:46:28;16.27;;;7.15;;
64923;SDS011;51436;44.692;39.214;2022-11-04T01:48:58;16.48;;;8.15;;
64923;SDS011;51436;44.692;39.214;2022-11-04T01:51:29;16.98;;;8.30;;
64923;SDS011;51436;44.692;39.214;2022-11-04T01:53:59;11.63;;;7.13;;
64923;SDS011;51436;44.692;39.214;2022-11-04T01:56:26;16.92;;;7.82;;
64923;SDS011;51436;44.692;39.214;2022-11-04T01:58:54;18.17;;;7.30;;
64923;SDS011;51436;44.692;39.214;2022-11-04T02:01:25;13.60;;;8.93;;
64923;SDS011;51436;44.692;39.214;2022-11-04T02:03:57;14.30;;;7.43;;
64923;SDS011;51436;44.692;39.214;2022-11-04T02:06:44;26.08;;;9.15;;
64923;SDS011;51436;44.692;39.214;2022-11-04T02:09:13;29.25;;;8.93;;
64923;SDS011;51436;44.692;39.214;2022-11-04T02:11:41;22.17;;;9.25;;
64923;SDS011;51436;44.692;39.214;2022-11-04T02:14:26;15.70;;;7.35;;
64923;SDS011;51436;44.692;39.214;2022-11-04T02:16:54;14.55;;;7.68;;
64923;SDS011;51436;44.692;39.214;2022-11-04T02:27:47;23.75;;;8.07;;
64923;SDS011;51436;44.692;39.214;2022-11-04T02:30:18;12.60;;;7.10;;
64923;SDS011;51436;44.692;39.214;2022-11-04T02:46:57;14.90;;;7.28;;
64923;SDS011;51436;44.692;39.214;2022-11-04T02:49:34;13.00;;;7.78;;
64923;SDS011;51436;44.692;39.214;2022-11-04T02:52:06;13.75;;;7.18;;
64923;SDS011;51436;44.692;39.214;2022-11-04T02:54:47;23.77;;;7.53;;
64923;SDS011;51436;44.692;39.214;2022-11-04T02:57:38;18.83;;;7.57;;
64923;SDS011;51436;44.692;39.214;2022-11-04T03:00:08;16.70;;;8.07;;
64923;SDS011;51436;44.692;39.214;2022-11-04T03:02:47;13.07;;;6.85;;
64923;SDS011;51436;44.692;39.214;2022-11-04T03:05:19;15.82;;;7.93;;
64923;SDS011;51436;44.692;39.214;2022-11-04T03:07:50;12.38;;;6.43;;
64923;SDS011;51436;44.692;39.214;2022-11-04T03:10:22;17.70;;;6.93;;
64923;SDS011;51436;44.692;39.214;2022-11-04T03:15:41;16.27;;;6.72;;
64923;SDS011;51436;44.692;39.214;2022-11-04T03:18:31;17.02;;;7.20;;
64923;SDS011;51436;44.692;39.214;2022-11-04T03:21:01;10.43;;;7.10;;
64923;SDS011;51436;44.692;39.214;2022-11-04T03:23:29;9.85;;;6.57;;
64923;SDS011;51436;44.692;39.214;2022-11-04T03:26:06;13.93;;;7.30;;
64923;SDS011;51436;44.692;39.214;2022-11-04T03:31:44;16.90;;;7.97;;
64923;SDS011;51436;44.692;39.214;2022-11-04T03:34:22;14.95;;;7.57;;
64923;SDS011;51436;44.692;39.214;2022-11-04T03:36:48;22.15;;;7.53;;
64923;SDS011;51436;44.692;39.214;2022-11-04T03:39:15;16.10;;;7.43;;
64923;SDS011;51436;44.692;39.214;2022-11-04T03:41:43;19.23;;;7.38;;
64923;SDS011;51436;44.692;39.214;2022-11-04T03:44:13;14.55;;;7.45;;
64923;SDS011;51436;44.692;39.214;2022-11-04T03:46:40;17.52;;;7.82;;
64923;SDS011;51436;44.692;39.214;2022-11-04T03:49:06;16.27;;;7.80;;
64923;SDS011;51436;44.692;39.214;2022-11-04T03:51:33;23.48;;;11.63;;
64923;SDS011;51436;44.692;39.214;2022-11-04T03:54:00;24.92;;;12.70;;
64923;SDS011;51436;44.692;39.214;2022-11-04T03:56:28;16.17;;;7.50;;
64923;SDS011;51436;44.692;39.214;2022-11-04T04:02:11;15.20;;;7.38;;
64923;SDS011;51436;44.692;39.214;2022-11-04T04:04:59;15.50;;;7.32;;
64923;SDS011;51436;44.692;39.214;2022-11-04T04:07:36;21.75;;;7.25;;
64923;SDS011;51436;44.692;39.214;2022-11-04T04:10:09;11.60;;;6.90;;
64923;SDS011;51436;44.692;39.214;2022-11-04T04:12:59;15.80;;;6.97;;
64923;SDS011;51436;44.692;39.214;2022-11-04T04:15:33;11.50;;;7.07;;
64923;SDS011;51436;44.692;39.214;2022-11-04T04:18:11;12.27;;;7.20;;
64923;SDS011;51436;44.692;39.214;2022-11-04T04:20:40;36.83;;;8.52;;
64923;SDS011;51436;44.692;39.214;2022-11-04T04:23:08;16.83;;;8.30;;
64923;SDS011;51436;44.692;39.214;2022-11-04T04:25:59;16.13;;;8.13;;
64923;SDS011;51436;44.692;39.214;2022-11-04T04:28:48;14.68;;;7.65;;
64923;SDS011;51436;44.692;39.214;2022-11-04T04:31:17;22.42;;;8.82;;
64923;SDS011;51436;44.692;39.214;2022-11-04T04:34:03;32.70;;;8.45;;
64923;SDS011;51436;44.692;39.214;2022-11-04T04:36:31;41.70;;;8.35;;
64923;SDS011;51436;44.692;39.214;2022-11-04T04:39:05;14.57;;;8.88;;
64923;SDS011;51436;44.692;39.214;2022-11-04T04:41:52;21.77;;;9.60;;
64923;SDS011;51436;44.692;39.214;2022-11-04T04:44:38;15.30;;;7.43;;
64923;SDS011;51436;44.692;39.214;2022-11-04T04:47:26;15.23;;;7.88;;
64923;SDS011;51436;44.692;39.214;2022-11-04T04:49:59;13.77;;;8.15;;
64923;SDS011;51436;44.692;39.214;2022-11-04T04:52:27;16.13;;;8.40;;
64923;SDS011;51436;44.692;39.214;2022-11-04T04:55:19;21.60;;;8.65;;
64923;SDS011;51436;44.692;39.214;2022-11-04T04:57:46;26.77;;;9.20;;
64923;SDS011;51436;44.692;39.214;2022-11-04T05:00:14;23.55;;;8.32;;
64923;SDS011;51436;44.692;39.214;2022-11-04T05:02:42;29.15;;;9.57;;
64923;SDS011;51436;44.692;39.214;2022-11-04T05:05:09;16.67;;;9.02;;
64923;SDS011;51436;44.692;39.214;2022-11-04T05:07:38;17.27;;;9.60;;
64923;SDS011;51436;44.692;39.214;2022-11-04T05:10:05;41.25;;;8.27;;
64923;SDS011;51436;44.692;39.214;2022-11-04T05:12:36;15.18;;;7.72;;
64923;SDS011;51436;44.692;39.214;2022-11-04T05:15:27;17.35;;;6.97;;
64923;SDS011;51436;44.692;39.214;2022-11-04T05:17:56;13.15;;;7.35;;
64923;SDS011;51436;44.692;39.214;2022-11-04T05:20:24;14.15;;;7.65;;
64923;SDS011;51436;44.692;39.214;2022-11-04T05:22:52;13.15;;;7.22;;
64923;SDS011;51436;44.692;39.214;2022-11-04T05:25:26;15.13;;;7.38;;
64923;SDS011;51436;44.692;39.214;2022-11-04T05:27:53;17.33;;;7.75;;
64923;SDS011;51436;44.692;39.214;2022-11-04T05:30:19;13.13;;;7.13;;
64923;SDS011;51436;44.692;39.214;2022-11-04T05:32:47;15.40;;;7.82;;
64923;SDS011;51436;44.692;39.214;2022-11-04T05:35:16;16.88;;;8.43;;
64923;SDS011;51436;44.692;39.214;2022-11-04T05:37:43;15.45;;;7.82;;
64923;SDS011;51436;44.692;39.214;2022-11-04T05:40:09;14.27;;;6.85;;
64923;SDS011;51436;44.692;39.214;2022-11-04T05:42:36;12.93;;;7.15;;
64923;SDS011;51436;44.692;39.214;2022-11-04T05:45:22;21.42;;;8.63;;
64923;SDS011;51436;44.692;39.214;2022-11-04T05:47:48;17.70;;;8.07;;
64923;SDS011;51436;44.692;39.214;2022-11-04T05:50:23;16.27;;;8.68;;
64923;SDS011;51436;44.692;39.214;2022-11-04T05:52:51;14.95;;;8.43;;
64923;SDS011;51436;44.692;39.214;2022-11-04T05:55:17;16.70;;;8.57;;
64923;SDS011;51436;44.692;39.214;2022-11-04T05:57:44;18.95;;;9.95;;
64923;SDS011;51436;44.692;39.214;2022-11-04T06:00:10;18.08;;;9.43;;
64923;SDS011;51436;44.692;39.214;2022-11-04T06:02:37;21.35;;;8.50;;
64923;SDS011;51436;44.692;39.214;2022-11-04T06:05:04;16.25;;;9.25;;
64923;SDS011;51436;44.692;39.214;2022-11-04T06:10:15;18.45;;;8.55;;
64923;SDS011;51436;44.692;39.214;2022-11-04T06:12:42;20.73;;;9.45;;
64923;SDS011;51436;44.692;39.214;2022-11-04T06:15:08;21.42;;;9.52;;
64923;SDS011;51436;44.692;39.214;2022-11-04T06:17:35;18.20;;;9.27;;
64923;SDS011;51436;44.692;39.214;2022-11-04T06:20:03;21.23;;;8.93;;
64923;SDS011;51436;44.692;39.214;2022-11-04T06:22:30;13.85;;;8.07;;
64923;SDS011;51436;44.692;39.214;2022-11-04T06:24:57;14.60;;;7.75;;
64923;SDS011;51436;44.692;39.214;2022-11-04T06:27:24;16.52;;;7.88;;
64923;SDS011;51436;44.692;39.214;2022-11-04T06:29:50;11.18;;;6.20;;
64923;SDS011;51436;44.692;39.214;2022-11-04T06:32:18;13.65;;;7.10;;
64923;SDS011;51436;44.692;39.214;2022-11-04T06:34:44;11.98;;;6.70;;
64923;SDS011;51436;44.692;39.214;2022-11-04T06:37:11;12.85;;;6.15;;
64923;SDS011;51436;44.692;39.214;2022-11-04T06:39:37;14.27;;;6.90;;
64923;SDS011;51436;44.692;39.214;2022-11-04T06:42:04;17.45;;;6.80;;
64923;SDS011;51436;44.692;39.214;2022-11-04T06:44:36;10.98;;;5.90;;
64923;SDS011;51436;44.692;39.214;2022-11-04T06:47:02;10.63;;;5.93;;
64923;SDS011;51436;44.692;39.214;2022-11-04T06:49:29;12.40;;;6.15;;
64923;SDS011;51436;44.692;39.214;2022-11-04T06:51:55;13.05;;;6.82;;
64923;SDS011;51436;44.692;39.214;2022-11-04T06:54:21;17.52;;;6.63;;
64923;SDS011;51436;44.692;39.214;2022-11-04T06:56:48;10.75;;;6.05;;
64923;SDS011;51436;44.692;39.214;2022-11-04T06:59:16;8.48;;;5.50;;
64923;SDS011;51436;44.692;39.214;2022-11-04T07:01:45;9.13;;;5.22;;
64923;SDS011;51436;44.692;39.214;2022-11-04T07:04:12;8.77;;;4.85;;
64923;SDS011;51436;44.692;39.214;2022-11-04T07:06:40;8.80;;;4.20;;
64923;SDS011;51436;44.692;39.214;2022-11-04T07:09:08;7.60;;;3.88;;
64923;SDS011;51436;44.692;39.214;2022-11-04T07:11:36;8.27;;;3.30;;
64923;SDS011;51436;44.692;39.214;2022-11-04T07:14:03;6.97;;;3.65;;
64923;SDS011;51436;44.692;39.214;2022-11-04T07:16:29;9.55;;;3.53;;
64923;SDS011;51436;44.692;39.214;2022-11-04T07:18:56;11.50;;;3.20;;
64923;SDS011;51436;44.692;39.214;2022-11-04T07:21:22;5.78;;;3.10;;
64923;SDS011;51436;44.692;39.214;2022-11-04T07:23:48;15.88;;;3.60;;
64923;SDS011;51436;44.692;39.214;2022-11-04T07:26:15;10.80;;;3.35;;
64923;SDS011;51436;44.692;39.214;2022-11-04T07:28:41;6.00;;;2.85;;
64923;SDS011;51436;44.692;39.214;2022-11-04T07:31:10;4.88;;;2.72;;
64923;SDS011;51436;44.692;39.214;2022-11-04T07:33:38;5.20;;;2.75;;
64923;SDS011;51436;44.692;39.214;2022-11-04T07:36:05;6.30;;;2.97;;
64923;SDS011;51436;44.692;39.214;2022-11-04T07:38:33;5.53;;;2.80;;
64923;SDS011;51436;44.692;39.214;2022-11-04T07:41:00;4.38;;;2.70;;
64923;SDS011;51436;44.692;39.214;2022-11-04T07:43:27;5.38;;;2.40;;
64923;SDS011;51436;44.692;39.214;2022-11-04T07:45:59;6.63;;;2.45;;
64923;SDS011;51436;44.692;39.214;2022-11-04T07:48:27;5.38;;;2.50;;
64923;SDS011;51436;44.692;39.214;2022-11-04T07:50:54;4.82;;;2.67;;
64923;SDS011;51436;44.692;39.214;2022-11-04T07:53:22;3.53;;;2.58;;
64923;SDS011;51436;44.692;39.214;2022-11-04T07:55:48;2.95;;;2.05;;
64923;SDS011;51436;44.692;39.214;2022-11-04T07:58:17;5.18;;;2.30;;
64923;SDS011;51436;44.692;39.214;2022-11-04T08:00:46;5.72;;;2.42;;
64923;SDS011;51436;44.692;39.214;2022-11-04T08:03:12;4.63;;;2.55;;
64923;SDS011;51436;44.692;39.214;2022-11-04T08:05:39;5.20;;;2.65;;
64923;SDS011;51436;44.692;39.214;2022-11-04T08:08:06;8.20;;;2.50;;
64923;SDS011;51436;44.692;39.214;2022-11-04T08:10:32;5.63;;;2.50;;
64923;SDS011;51436;44.692;39.214;2022-11-04T08:12:59;9.27;;;2.40;;
64923;SDS011;51436;44.692;39.214;2022-11-04T08:15:25;6.03;;;2.63;;
64923;SDS011;51436;44.692;39.214;2022-11-04T08:17:53;4.07;;;2.35;;
64923;SDS011;51436;44.692;39.214;2022-11-04T08:20:20;7.07;;;2.63;;
64923;SDS011;51436;44.692;39.214;2022-11-04T08:22:46;3.75;;;2.13;;
64923;SDS011;51436;44.692;39.214;2022-11-04T08:25:12;5.10;;;2.40;;
64923;SDS011;51436;44.692;39.214;2022-11-04T08:27:39;4.35;;;2.60;;
64923;SDS011;51436;44.692;39.214;2022-11-04T08:30:05;4.05;;;2.42;;
64923;SDS011;51436;44.692;39.214;2022-11-04T08:32:32;8.02;;;2.40;;
64923;SDS011;51436;44.692;39.214;2022-11-04T08:34:59;4.72;;;2.83;;
64923;SDS011;51436;44.692;39.214;2022-11-04T08:37:26;7.55;;;3.55;;
64923;SDS011;51436;44.692;39.214;2022-11-04T08:39:52;7.68;;;2.88;;
64923;SDS011;51436;44.692;39.214;2022-11-04T08:42:19;7.70;;;2.70;;
64923;SDS011;51436;44.692;39.214;2022-11-04T08:44:49;4.97;;;2.58;;
64923;SDS011;51436;44.692;39.214;2022-11-04T08:58:36;4.97;;;2.47;;
64923;SDS011;51436;44.692;39.214;2022-11-04T09:01:34;9.30;;;4.70;;
64923;SDS011;51436;44.692;39.214;2022-11-04T09:04:01;10.73;;;4.45;;
64923;SDS011;51436;44.692;39.214;2022-11-04T09:06:30;5.15;;;2.78;;
64923;SDS011;51436;44.692;39.214;2022-11-04T09:11:48;7.95;;;3.40;;
64923;SDS011;51436;44.692;39.214;2022-11-04T09:14:15;13.50;;;3.35;;
64923;SDS011;51436;44.692;39.214;2022-11-04T09:16:42;7.07;;;3.42;;
64923;SDS011;51436;44.692;39.214;2022-11-04T09:19:08;4.50;;;2.90;;
64923;SDS011;51436;44.692;39.214;2022-11-04T09:21:35;4.85;;;2.88;;
64923;SDS011;51436;44.692;39.214;2022-11-04T09:24:01;4.68;;;3.17;;
64923;SDS011;51436;44.692;39.214;2022-11-04T09:26:28;3.95;;;2.95;;
64923;SDS011;51436;44.692;39.214;2022-11-04T09:28:55;4.53;;;2.95;;
64923;SDS011;51436;44.692;39.214;2022-11-04T09:31:22;24.40;;;8.98;;
64923;SDS011;51436;44.692;39.214;2022-11-04T09:33:50;10.40;;;3.67;;
64923;SDS011;51436;44.692;39.214;2022-11-04T09:36:16;14.50;;;5.22;;
64923;SDS011;51436;44.692;39.214;2022-11-04T09:38:43;6.50;;;3.35;;
64923;SDS011;51436;44.692;39.214;2022-11-04T09:41:20;23.63;;;11.43;;
64923;SDS011;51436;44.692;39.214;2022-11-04T09:47:02;5.85;;;2.50;;
64923;SDS011;51436;44.692;39.214;2022-11-04T09:49:31;12.57;;;4.10;;
64923;SDS011;51436;44.692;39.214;2022-11-04T09:52:01;19.88;;;7.95;;
64923;SDS011;51436;44.692;39.214;2022-11-04T09:54:43;8.63;;;5.00;;
64923;SDS011;51436;44.692;39.214;2022-11-04T09:57:18;6.13;;;3.30;;
64923;SDS011;51436;44.692;39.214;2022-11-04T09:59:45;5.72;;;3.40;;
64923;SDS011;51436;44.692;39.214;2022-11-04T10:10:37;16.77;;;7.15;;
64923;SDS011;51436;44.692;39.214;2022-11-04T10:13:16;3.80;;;2.25;;
64923;SDS011;51436;44.692;39.214;2022-11-04T10:21:39;5.47;;;3.10;;
64923;SDS011;51436;44.692;39.214;2022-11-04T10:26:56;8.55;;;3.95;;
64923;SDS011;51436;44.692;39.214;2022-11-04T10:30:05;7.05;;;4.05;;
64923;SDS011;51436;44.692;39.214;2022-11-04T10:32:43;9.63;;;3.72;;
64923;SDS011;51436;44.692;39.214;2022-11-04T10:35:21;7.05;;;4.05;;
64923;SDS011;51436;44.692;39.214;2022-11-04T10:37:55;7.53;;;4.28;;
64923;SDS011;51436;44.692;39.214;2022-11-04T10:40:43;6.47;;;3.53;;
64923;SDS011;51436;44.692;39.214;2022-11-04T10:43:14;7.97;;;3.88;;
64923;SDS011;51436;44.692;39.214;2022-11-04T10:46:08;11.60;;;3.95;;
64923;SDS011;51436;44.692;39.214;2022-11-04T10:48:59;7.32;;;3.60;;
64923;SDS011;51436;44.692;39.214;2022-11-04T10:54:07;5.35;;;3.35;;
64923;SDS011;51436;44.692;39.214;2022-11-04T10:56:41;5.30;;;3.35;;
64923;SDS011;51436;44.692;39.214;2022-11-04T10:59:23;9.30;;;3.38;;
64923;SDS011;51436;44.692;39.214;2022-11-04T11:01:52;10.23;;;3.72;;
64923;SDS011;51436;44.692;39.214;2022-11-04T11:04:25;5.45;;;3.30;;
64923;SDS011;51436;44.692;39.214;2022-11-04T11:06:56;10.07;;;3.60;;
64923;SDS011;51436;44.692;39.214;2022-11-04T11:09:26;4.97;;;3.00;;
64923;SDS011;51436;44.692;39.214;2022-11-04T11:11:56;7.68;;;3.35;;
64923;SDS011;51436;44.692;39.214;2022-11-04T11:14:34;6.38;;;3.78;;
64923;SDS011;51436;44.692;39.214;2022-11-04T11:22:28;6.65;;;3.35;;
64923;SDS011;51436;44.692;39.214;2022-11-04T11:28:00;8.55;;;3.50;;
64923;SDS011;51436;44.692;39.214;2022-11-04T11:33:02;6.00;;;3.10;;
64923;SDS011;51436;44.692;39.214;2022-11-04T11:35:36;7.05;;;3.30;;
64923;SDS011;51436;44.692;39.214;2022-11-04T11:38:14;6.25;;;3.53;;
64923;SDS011;51436;44.692;39.214;2022-11-04T11:40:43;5.95;;;3.25;;
64923;SDS011;51436;44.692;39.214;2022-11-04T11:43:18;4.00;;;3.08;;
64923;SDS011;51436;44.692;39.214;2022-11-04T11:45:52;11.57;;;3.47;;
64923;SDS011;51436;44.692;39.214;2022-11-04T11:48:41;4.45;;;2.95;;
64923;SDS011;51436;44.692;39.214;2022-11-04T11:51:12;9.30;;;3.42;;
64923;SDS011;51436;44.692;39.214;2022-11-04T11:53:40;9.75;;;3.63;;
64923;SDS011;51436;44.692;39.214;2022-11-04T11:56:31;10.07;;;4.90;;
64923;SDS011;51436;44.692;39.214;2022-11-04T11:59:16;15.40;;;4.93;;
64923;SDS011;51436;44.692;39.214;2022-11-04T12:02:02;7.10;;;4.05;;
64923;SDS011;51436;44.692;39.214;2022-11-04T12:04:44;11.98;;;5.28;;
64923;SDS011;51436;44.692;39.214;2022-11-04T12:07:32;7.75;;;4.57;;
64923;SDS011;51436;44.692;39.214;2022-11-04T12:10:34;7.50;;;3.47;;
64923;SDS011;51436;44.692;39.214;2022-11-04T12:21:18;5.80;;;3.50;;
64923;SDS011;51436;44.692;39.214;2022-11-04T12:24:01;5.20;;;3.00;;
64923;SDS011;51436;44.692;39.214;2022-11-04T12:26:55;5.55;;;3.33;;
64923;SDS011;51436;44.692;39.214;2022-11-04T12:33:27;6.75;;;3.70;;
64923;SDS011;51436;44.692;39.214;2022-11-04T12:46:56;6.85;;;2.90;;
64923;SDS011;51436;44.692;39.214;2022-11-04T12:50:01;4.60;;;3.20;;
64923;SDS011;51436;44.692;39.214;2022-11-04T12:56:13;6.22;;;3.55;;
64923;SDS011;51436;44.692;39.214;2022-11-04T12:58:27;5.85;;;3.15;;
64923;SDS011;51436;44.692;39.214;2022-11-04T13:01:09;5.38;;;3.22;;
64923;SDS011;51436;44.692;39.214;2022-11-04T13:04:28;5.55;;;2.78;;
64923;SDS011;51436;44.692;39.214;2022-11-04T13:06:55;6.25;;;2.78;;
64923;SDS011;51436;44.692;39.214;2022-11-04T13:09:46;3.70;;;3.05;;
64923;SDS011;51436;44.692;39.214;2022-11-04T13:12:20;3.97;;;2.70;;
64923;SDS011;51436;44.692;39.214;2022-11-04T13:14:50;6.20;;;3.17;;
64923;SDS011;51436;44.692;39.214;2022-11-04T13:17:37;7.38;;;3.42;;
64923;SDS011;51436;44.692;39.214;2022-11-04T13:22:47;6.53;;;2.90;;
64923;SDS011;51436;44.692;39.214;2022-11-04T13:25:18;6.90;;;3.22;;
64923;SDS011;51436;44.692;39.214;2022-11-04T13:27:48;11.50;;;3.38;;
64923;SDS011;51436;44.692;39.214;2022-11-04T13:30:18;6.47;;;3.35;;
64923;SDS011;51436;44.692;39.214;2022-11-04T13:38:15;7.72;;;3.42;;
64923;SDS011;51436;44.692;39.214;2022-11-04T13:41:07;5.18;;;3.10;;
64923;SDS011;51436;44.692;39.214;2022-11-04T13:43:58;7.15;;;3.05;;
64923;SDS011;51436;44.692;39.214;2022-11-04T13:46:33;7.82;;;3.30;;
64923;SDS011;51436;44.692;39.214;2022-11-04T13:49:14;9.00;;;3.15;;
64923;SDS011;51436;44.692;39.214;2022-11-04T13:51:46;16.33;;;3.65;;
64923;SDS011;51436;44.692;39.214;2022-11-04T13:57:06;11.23;;;3.65;;
64923;SDS011;51436;44.692;39.214;2022-11-04T13:59:33;8.85;;;3.67;;
64923;SDS011;51436;44.692;39.214;2022-11-04T14:04:39;12.23;;;4.25;;
64923;SDS011;51436;44.692;39.214;2022-11-04T14:07:08;17.08;;;8.13;;
64923;SDS011;51436;44.692;39.214;2022-11-04T14:14:40;15.85;;;6.80;;
64923;SDS011;51436;44.692;39.214;2022-11-04T14:22:51;17.83;;;9.13;;
64923;SDS011;51436;44.692;39.214;2022-11-04T14:25:24;27.52;;;11.70;;
64923;SDS011;51436;44.692;39.214;2022-11-04T14:27:52;29.95;;;12.40;;
64923;SDS011;51436;44.692;39.214;2022-11-04T14:33:00;28.58;;;14.10;;
64923;SDS011;51436;44.692;39.214;2022-11-04T14:35:33;32.50;;;13.27;;
64923;SDS011;51436;44.692;39.214;2022-11-04T14:38:46;29.75;;;12.98;;
64923;SDS011;51436;44.692;39.214;2022-11-04T14:40:51;30.20;;;12.98;;
64923;SDS011;51436;44.692;39.214;2022-11-04T14:43:38;40.05;;;15.85;;
64923;SDS011;51436;44.692;39.214;2022-11-04T14:48:44;33.80;;;14.57;;
64923;SDS011;51436;44.692;39.214;2022-11-04T14:51:21;26.80;;;13.73;;
64923;SDS011;51436;44.692;39.214;2022-11-04T14:54:03;21.80;;;11.38;;
64923;SDS011;51436;44.692;39.214;2022-11-04T15:07:41;32.45;;;13.60;;
64923;SDS011;51436;44.692;39.214;2022-11-04T15:12:52;26.20;;;12.40;;
64923;SDS011;51436;44.692;39.214;2022-11-04T15:15:38;24.58;;;11.32;;
64923;SDS011;51436;44.692;39.214;2022-11-04T15:18:16;22.77;;;10.65;;
64923;SDS011;51436;44.692;39.214;2022-11-04T15:20:47;28.00;;;11.80;;
64923;SDS011;51436;44.692;39.214;2022-11-04T15:23:59;27.42;;;11.63;;
64923;SDS011;51436;44.692;39.214;2022-11-04T15:26:24;33.63;;;12.60;;
64923;SDS011;51436;44.692;39.214;2022-11-04T15:28:57;27.95;;;11.07;;
64923;SDS011;51436;44.692;39.214;2022-11-04T15:31:29;25.48;;;11.27;;
64923;SDS011;51436;44.692;39.214;2022-11-04T15:33:57;30.05;;;13.15;;
64923;SDS011;51436;44.692;39.214;2022-11-04T15:36:34;29.40;;;13.32;;
64923;SDS011;51436;44.692;39.214;2022-11-04T15:39:07;24.60;;;11.95;;
64923;SDS011;51436;44.692;39.214;2022-11-04T15:41:39;29.30;;;13.10;;
64923;SDS011;51436;44.692;39.214;2022-11-04T15:44:26;25.50;;;11.93;;
64923;SDS011;51436;44.692;39.214;2022-11-04T15:46:55;28.67;;;12.95;;
64923;SDS011;51436;44.692;39.214;2022-11-04T15:49:24;28.40;;;12.63;;
64923;SDS011;51436;44.692;39.214;2022-11-04T15:52:04;20.42;;;11.55;;
64923;SDS011;51436;44.692;39.214;2022-11-04T15:54:38;26.23;;;12.20;;
64923;SDS011;51436;44.692;39.214;2022-11-04T15:57:11;22.45;;;11.52;;
64923;SDS011;51436;44.692;39.214;2022-11-04T16:00:04;24.02;;;11.48;;
64923;SDS011;51436;44.692;39.214;2022-11-04T16:02:44;26.30;;;11.70;;
64923;SDS011;51436;44.692;39.214;2022-11-04T16:08:17;21.65;;;11.80;;
64923;SDS011;51436;44.692;39.214;2022-11-04T16:10:46;31.10;;;11.73;;
64923;SDS011;51436;44.692;39.214;2022-11-04T16:15:47;22.27;;;11.07;;
64923;SDS011;51436;44.692;39.214;2022-11-04T16:18:47;27.75;;;12.20;;
64923;SDS011;51436;44.692;39.214;2022-11-04T16:21:23;29.33;;;12.05;;
64923;SDS011;51436;44.692;39.214;2022-11-04T16:24:05;29.60;;;12.60;;
64923;SDS011;51436;44.692;39.214;2022-11-04T16:26:42;26.40;;;12.50;;
64923;SDS011;51436;44.692;39.214;2022-11-04T16:29:15;22.38;;;10.95;;
64923;SDS011;51436;44.692;39.214;2022-11-04T16:32:07;27.20;;;12.63;;
64923;SDS011;51436;44.692;39.214;2022-11-04T16:34:40;30.08;;;11.80;;
64923;SDS011;51436;44.692;39.214;2022-11-04T16:37:07;23.42;;;11.57;;
64923;SDS011;51436;44.692;39.214;2022-11-04T16:39:34;27.88;;;11.75;;
64923;SDS011;51436;44.692;39.214;2022-11-04T16:42:01;26.42;;;12.63;;
64923;SDS011;51436;44.692;39.214;2022-11-04T16:44:27;24.33;;;11.57;;
64923;SDS011;51436;44.692;39.214;2022-11-04T16:49:35;27.45;;;12.07;;
64923;SDS011;51436;44.692;39.214;2022-11-04T16:52:01;25.95;;;13.05;;
64923;SDS011;51436;44.692;39.214;2022-11-04T16:54:28;31.77;;;13.68;;
64923;SDS011;51436;44.692;39.214;2022-11-04T16:56:54;29.58;;;13.60;;
64923;SDS011;51436;44.692;39.214;2022-11-04T16:59:22;21.55;;;11.68;;
64923;SDS011;51436;44.692;39.214;2022-11-04T17:01:48;22.30;;;11.70;;
64923;SDS011;51436;44.692;39.214;2022-11-04T17:04:14;18.25;;;10.13;;
64923;SDS011;51436;44.692;39.214;2022-11-04T17:06:41;22.75;;;10.77;;
64923;SDS011;51436;44.692;39.214;2022-11-04T17:09:19;23.33;;;10.55;;
64923;SDS011;51436;44.692;39.214;2022-11-04T17:11:47;15.23;;;9.10;;
64923;SDS011;51436;44.692;39.214;2022-11-04T17:14:14;16.90;;;8.63;;
64923;SDS011;51436;44.692;39.214;2022-11-04T17:16:41;16.05;;;7.80;;
64923;SDS011;51436;44.692;39.214;2022-11-04T17:19:14;17.45;;;7.88;;
64923;SDS011;51436;44.692;39.214;2022-11-04T17:21:42;17.30;;;7.17;;
64923;SDS011;51436;44.692;39.214;2022-11-04T17:24:09;13.23;;;6.43;;
64923;SDS011;51436;44.692;39.214;2022-11-04T17:26:36;11.75;;;7.38;;
64923;SDS011;51436;44.692;39.214;2022-11-04T17:29:23;11.23;;;6.32;;
64923;SDS011;51436;44.692;39.214;2022-11-04T17:31:49;14.20;;;6.75;;
64923;SDS011;51436;44.692;39.214;2022-11-04T17:34:17;15.48;;;6.45;;